Friday, January 30, 2015
02:36 UTC
  |  Log In   |  Register Free
Airport Search:

Modesto City-Co-Harry Sham Fld Airport
(KMOD)

FAA data valid effective January 08, 2015 - March 05, 2015 (unless otherwise noted).

 
 
 
 
 
 
 
 
 
 
 
 
 
 

Current Aviation Weather for Modesto City-Co-Harry Sham Fld Airport (KMOD)

The most recent METAR observation for KMOD was updated at: 0213
METAR Summary (Translated METAR)
KMOD
300153Z 30005KT 10SM CLR 16/08 A3006 RMK AO2 SLP179 T01560078
KSCK
300155Z 00000KT 10SM CLR 14/09 A3005 RMK AO2 SLP176 T01440089
(21 nm NW from KMOD)
KMER
300145Z 24005KT 3SM HZ SKC 12/12 A3007
(23.6 nm SE from KMOD)
TAF Summary (Translated TAF)
KSCK
(21 nm NW from KMOD)
292020Z 2920/3018 VRB04KT 4SM BR SCT005 FM292100 32005KT P6SM SKC FM300700 VRB02KT 2SM BR BKN002 FM301100 31003KT 1/4SM FG VV001
KMER
(23.6 nm SE from KMOD)
292010Z 2920/3018 00000KT 1/4SM FG OVC001 FM292100 VRB03KT 1SM BR SCT005 SCT150 FM292200 33005KT 4SM HZ FEW150 FM300300 VRB03KT 2SM BR FEW150 FM300600 00000KT 1/4SM FG VV001
  Airport Weather Conditions for KMOD

 Current Weather at MOD
60° F
Fair
Northwest winds at 5.8 mph
MOD NOAA Radar

Pressure: 30.06 in
Humidity: 60%
Wind: Northwest at 5.8 MPH (5 KT)
Dew Point: 46.0°F
Visibility: 10.00 mi


Airport Weather Forecast for KMOD

Translated METAR and TAF for KMOD
Translated METAR for KMOD (0237 UTC 30 January 2015)
found at http://aviationweather.gov/adds/metars/
 
METAR text: KMOD 300153Z 30005KT 10SM CLR 16/08 A3006 RMK AO2 SLP179 T01560078
Conditions at: KMOD (MODESTO , CA, US) observed 0153 UTC 30 January 2015
Temperature: 15.6°C (60°F)
Dewpoint: 7.8°C (46°F) [RH = 60%]
Pressure (altimeter): 30.06 inches Hg (1018.0 mb)
[Sea-level pressure: 1017.9 mb]
Winds: from the WNW (300 degrees) at 6 MPH (5 knots; 2.6 m/s)
Visibility: 10 or more miles (16+ km)
Ceiling: at least 12,000 feet AGL
Clouds: sky clear below 12,000 feet AGL
Weather: no significant weather observed at this time
Translated TAF for KMOD

There is no translated TAF available for this airport

Find All Airport Services Find A Hotel Find A Rental Car Find A Golf Course Find A Restaurant $100 Hamburger



FBO's on the Field
FBO Company Facility Photos Services Transportation Aviation Fuel Prices: Prices include tax
Catering Weather Repair Courtesy Rental Type 100LL JetA JetA+ MOGAS 8087
 
Sky Trek Aviation

This FBO has not yet been rated
FS:Avfuel
Last Updated: Jan-07
Login to update fuel prices
SS:
Contact Sky Trek AviationMore FBO Information
 
Add another FBO Facility Photos Catering Weather Repair Courtesy Rental Type 100LL JetA JetA+ MOGAS 8087
Services Transportation Aviation Fuel Prices: Prices include tax


model-print
model-print
model-print
model-print